createdAt,value
2023-02-14T00:01:29.304Z,-1.93
2023-02-14T00:04:00.754Z,-1.91
2023-02-14T00:06:29.961Z,-2.03
2023-02-14T00:08:58.042Z,-2.02
2023-02-14T00:11:27.400Z,-2.16
2023-02-14T00:14:12.675Z,-2.10
2023-02-14T00:16:40.680Z,-2.02
2023-02-14T00:19:08.886Z,-2.26
2023-02-14T00:21:38.319Z,-2.06
2023-02-14T00:24:08.175Z,-1.87
2023-02-14T00:26:38.838Z,-1.91
2023-02-14T00:29:07.147Z,-1.71
2023-02-14T00:31:36.073Z,-1.82
2023-02-14T00:34:04.639Z,-1.85
2023-02-14T00:36:32.843Z,-1.93
2023-02-14T00:39:00.765Z,-1.93
2023-02-14T00:41:28.693Z,-1.64
2023-02-14T00:43:58.083Z,-1.60
2023-02-14T00:46:26.984Z,-1.67
2023-02-14T00:48:55.161Z,-2.18
2023-02-14T00:51:24.075Z,-2.42
2023-02-14T00:53:52.248Z,-2.17
2023-02-14T00:56:20.760Z,-2.48
2023-02-14T00:58:49.268Z,-2.44
2023-02-14T01:01:19.635Z,-2.60
2023-02-14T01:03:48.176Z,-2.56
2023-02-14T01:06:16.780Z,-2.60
2023-02-14T01:08:44.775Z,-2.76
2023-02-14T01:11:15.095Z,-2.64
2023-02-14T01:13:43.919Z,-2.67
2023-02-14T01:16:14.050Z,-2.36
2023-02-14T01:18:44.604Z,-2.53
2023-02-14T01:21:18.900Z,-2.72
2023-02-14T01:23:48.016Z,-2.76
2023-02-14T01:26:17.253Z,-2.66
2023-02-14T01:28:46.181Z,-2.74
2023-02-14T01:31:16.989Z,-2.79
2023-02-14T01:33:48.186Z,-2.41
2023-02-14T01:36:18.497Z,-2.86
2023-02-14T01:38:46.689Z,-2.43
2023-02-14T01:41:15.464Z,-2.51
2023-02-14T01:44:05.284Z,-2.65
2023-02-14T01:46:35.163Z,-2.56
2023-02-14T01:49:09.308Z,-2.23
2023-02-14T01:51:40.037Z,-2.16
2023-02-14T01:54:09.700Z,-2.06
2023-02-14T01:56:42.253Z,-2.11
2023-02-14T01:59:14.305Z,-2.00
2023-02-14T02:01:43.497Z,-2.21
2023-02-14T02:04:17.762Z,-2.13
2023-02-14T02:06:49.235Z,-1.97
2023-02-14T02:09:22.366Z,-1.91
2023-02-14T02:11:50.636Z,-2.02
2023-02-14T02:14:20.690Z,-1.93
2023-02-14T02:17:04.079Z,-1.91
2023-02-14T02:20:06.973Z,-2.04
2023-02-14T02:23:06.217Z,-2.11
2023-02-14T02:26:03.093Z,-2.08
2023-02-14T02:28:54.350Z,-2.13
2023-02-14T02:31:49.020Z,-2.56
2023-02-14T02:34:50.237Z,-2.63
2023-02-14T02:37:33.281Z,-2.76
2023-02-14T02:40:14.490Z,-2.91
2023-02-14T02:42:54.382Z,-3.02
2023-02-14T02:45:29.914Z,-2.95
2023-02-14T02:48:04.624Z,-2.97
2023-02-14T02:50:53.612Z,-3.25
2023-02-14T02:53:27.458Z,-3.35
2023-02-14T02:56:14.459Z,-2.97
2023-02-14T02:58:46.445Z,-2.92
2023-02-14T03:01:18.481Z,-3.13
2023-02-14T03:04:06.520Z,-3.01
2023-02-14T03:06:34.806Z,-2.92
2023-02-14T03:09:13.156Z,-2.92
2023-02-14T03:11:49.666Z,-3.05
2023-02-14T03:14:21.601Z,-3.14
2023-02-14T03:17:02.769Z,-3.42
2023-02-14T03:20:12.390Z,-3.10
2023-02-14T03:22:50.570Z,-3.28
2023-02-14T03:25:38.455Z,-2.85
2023-02-14T03:28:16.114Z,-2.76
2023-02-14T03:30:51.026Z,-2.86
2023-02-14T03:33:24.136Z,-2.60
2023-02-14T03:36:02.007Z,-2.57
2023-02-14T03:38:34.523Z,-2.64
2023-02-14T03:41:05.951Z,-2.62
2023-02-14T03:43:37.689Z,-2.61
2023-02-14T03:46:10.809Z,-2.66
2023-02-14T03:48:41.038Z,-2.72
2023-02-14T03:51:12.599Z,-2.70
2023-02-14T03:53:45.700Z,-2.77
2023-02-14T03:56:19.761Z,-2.81
2023-02-14T03:58:51.512Z,-2.93
2023-02-14T04:01:24.924Z,-2.72
2023-02-14T04:03:56.272Z,-3.03
2023-02-14T04:06:24.633Z,-3.20
2023-02-14T04:08:52.711Z,-3.29
2023-02-14T04:11:24.350Z,-3.43
2023-02-14T04:13:52.491Z,-3.59
2023-02-14T04:16:20.545Z,-3.18
2023-02-14T04:19:05.890Z,-3.06
2023-02-14T04:21:34.049Z,-2.91
2023-02-14T04:24:01.953Z,-2.89
2023-02-14T04:26:31.297Z,-2.93
2023-02-14T04:28:59.248Z,-2.98
2023-02-14T04:31:27.312Z,-2.86
2023-02-14T04:33:55.337Z,-2.82
2023-02-14T04:36:23.267Z,-2.94
2023-02-14T04:38:51.149Z,-3.00
2023-02-14T04:41:19.077Z,-2.90
2023-02-14T04:43:48.405Z,-2.91
2023-02-14T04:46:16.402Z,-2.86
2023-02-14T04:48:44.359Z,-2.94
2023-02-14T04:51:12.278Z,-2.94
2023-02-14T04:53:40.529Z,-2.90
2023-02-14T04:56:09.248Z,-2.86
2023-02-14T04:58:38.011Z,-2.86
2023-02-14T05:01:07.469Z,-2.91
2023-02-14T05:03:35.436Z,-2.92
2023-02-14T05:06:03.426Z,-2.90
2023-02-14T05:08:31.417Z,-2.78
2023-02-14T05:10:59.759Z,-2.80
2023-02-14T05:13:28.606Z,-2.63
2023-02-14T05:15:56.895Z,-2.59
2023-02-14T05:18:26.616Z,-2.58
2023-02-14T05:20:55.664Z,-2.47
2023-02-14T05:23:24.192Z,-2.50
2023-02-14T05:25:53.045Z,-2.42
2023-02-14T05:28:21.285Z,-2.44
2023-02-14T05:30:49.259Z,-2.26
2023-02-14T05:33:17.195Z,-2.28
2023-02-14T05:35:46.562Z,-2.29
2023-02-14T05:38:14.502Z,-2.26
2023-02-14T05:40:42.887Z,-2.14
2023-02-14T05:43:11.134Z,-2.06
2023-02-14T05:45:39.515Z,-2.11
2023-02-14T05:48:07.498Z,-2.11
2023-02-14T05:50:35.498Z,-2.01
2023-02-14T05:53:05.180Z,-2.21
2023-02-14T05:55:33.114Z,-2.33
2023-02-14T05:58:01.061Z,-2.29
2023-02-14T06:00:29.475Z,-2.34
2023-02-14T06:02:57.450Z,-2.44
2023-02-14T06:05:25.410Z,-2.51
2023-02-14T06:07:53.365Z,-2.39
2023-02-14T06:10:24.688Z,-2.39
2023-02-14T06:12:54.402Z,-2.51
2023-02-14T06:15:22.987Z,-2.51
2023-02-14T06:17:55.165Z,-2.39
2023-02-14T06:20:25.284Z,-2.32
2023-02-14T06:22:53.786Z,-2.26
2023-02-14T06:25:23.963Z,-2.30
2023-02-14T06:27:52.619Z,-2.43
2023-02-14T06:30:20.653Z,-2.41
2023-02-14T06:32:48.610Z,-2.39
2023-02-14T06:35:16.858Z,-2.29
2023-02-14T06:37:45.470Z,-2.25
2023-02-14T06:40:14.803Z,-2.28
2023-02-14T06:42:44.541Z,-2.23
2023-02-14T06:45:12.639Z,-2.06
2023-02-14T06:47:40.683Z,-2.05
2023-02-14T06:50:11.772Z,-2.11
2023-02-14T06:52:40.141Z,-2.02
2023-02-14T06:55:08.864Z,-2.23
2023-02-14T06:57:36.798Z,-2.07
2023-02-14T07:00:07.502Z,-2.06
2023-02-14T07:02:35.518Z,-2.42
2023-02-14T07:05:03.509Z,-2.26
2023-02-14T07:07:31.512Z,-2.20
2023-02-14T07:09:59.421Z,-2.24
2023-02-14T07:12:27.405Z,-2.57
2023-02-14T07:14:55.297Z,-2.23
2023-02-14T07:17:24.616Z,-2.07
2023-02-14T07:19:52.542Z,-2.28
2023-02-14T07:22:20.504Z,-2.13
2023-02-14T07:24:48.403Z,-2.14
2023-02-14T07:27:16.393Z,-2.06
2023-02-14T07:29:44.390Z,-2.04
2023-02-14T07:32:12.462Z,-2.02
2023-02-14T07:34:43.858Z,-2.08
2023-02-14T07:37:12.141Z,-2.04
2023-02-14T07:39:40.263Z,-2.24
2023-02-14T07:42:08.369Z,-2.05
2023-02-14T07:44:36.546Z,-1.90
2023-02-14T07:47:04.514Z,-1.89
2023-02-14T07:49:32.467Z,-1.97
2023-02-14T07:52:01.922Z,-1.88
2023-02-14T07:54:29.849Z,-1.90
2023-02-14T07:56:57.861Z,-2.08
2023-02-14T07:59:26.185Z,-1.82
2023-02-14T08:01:54.421Z,-1.73
2023-02-14T08:04:26.052Z,-1.73
2023-02-14T08:06:54.642Z,-2.08
2023-02-14T08:09:26.724Z,-1.88
2023-02-14T08:12:13.235Z,-2.03
2023-02-14T08:14:41.680Z,-1.92
2023-02-14T08:17:10.958Z,-1.99
2023-02-14T08:19:38.903Z,-1.87
2023-02-14T08:22:07.244Z,-2.04
2023-02-14T08:24:36.596Z,-1.96
2023-02-14T08:27:04.859Z,-1.98
2023-02-14T08:29:32.800Z,-2.14
2023-02-14T08:32:01.248Z,-1.83
2023-02-14T08:34:29.279Z,-1.67
2023-02-14T08:36:57.245Z,-1.67
2023-02-14T08:39:25.325Z,-1.93
2023-02-14T08:41:54.652Z,-1.98
2023-02-14T08:44:22.648Z,-2.02
2023-02-14T08:46:50.699Z,-1.95
2023-02-14T08:49:18.727Z,-1.83
2023-02-14T08:51:46.712Z,-1.67
2023-02-14T08:54:14.640Z,-1.84
2023-02-14T08:56:43.024Z,-1.73
2023-02-14T08:59:12.359Z,-1.72
2023-02-14T09:01:40.317Z,-1.65
2023-02-14T09:04:08.229Z,-2.11
2023-02-14T09:06:39.030Z,-1.80
2023-02-14T09:09:07.610Z,-1.79
2023-02-14T09:11:36.749Z,-1.62
2023-02-14T09:14:04.719Z,-1.75
2023-02-14T09:16:34.174Z,-1.60
2023-02-14T09:19:02.211Z,-1.56
2023-02-14T09:21:30.653Z,-1.65
2023-02-14T09:23:59.523Z,-1.47
2023-02-14T09:26:28.823Z,-1.57
2023-02-14T09:28:58.000Z,-1.46
2023-02-14T09:31:26.652Z,-1.27
2023-02-14T09:33:56.406Z,-1.24
2023-02-14T09:36:41.725Z,-1.38
2023-02-14T09:39:09.640Z,-1.62
2023-02-14T09:42:00.743Z,-1.37
2023-02-14T09:44:34.352Z,-1.17
2023-02-14T09:47:11.295Z,-1.25
2023-02-14T09:49:41.175Z,-1.41
2023-02-14T09:52:15.789Z,-1.35
2023-02-14T09:54:48.628Z,-1.38
2023-02-14T09:57:24.934Z,-1.12
2023-02-14T09:59:58.484Z,-0.97
2023-02-14T10:02:42.008Z,-1.07
2023-02-14T10:05:17.723Z,-1.13
2023-02-14T10:07:58.126Z,-0.87
2023-02-14T10:10:31.624Z,-0.78
2023-02-14T10:13:07.853Z,-0.56
2023-02-14T10:15:39.655Z,-0.39
2023-02-14T10:18:15.945Z,-0.33
2023-02-14T10:20:48.070Z,-0.40
2023-02-14T10:23:27.215Z,-0.20
2023-02-14T10:25:58.634Z,-0.19
2023-02-14T10:28:32.415Z,-0.32
2023-02-14T10:31:13.510Z,-0.30
2023-02-14T10:33:47.896Z,-0.25
2023-02-14T10:36:23.782Z,-0.04
2023-02-14T10:38:58.973Z,0.08
2023-02-14T10:41:41.889Z,-0.30
2023-02-14T10:44:25.711Z,-0.05
2023-02-14T10:47:01.145Z,-0.05
2023-02-14T10:49:42.796Z,0.07
2023-02-14T10:52:24.050Z,0.36
2023-02-14T10:54:57.597Z,0.21
2023-02-14T10:57:30.576Z,0.18
2023-02-14T11:00:02.025Z,0.57
2023-02-14T11:02:35.251Z,0.67
2023-02-14T11:05:05.932Z,0.65
2023-02-14T11:07:35.610Z,0.59
2023-02-14T11:10:03.537Z,0.70
2023-02-14T11:12:37.543Z,0.42
2023-02-14T11:15:20.726Z,0.87
2023-02-14T11:17:49.219Z,0.48
2023-02-14T11:20:27.890Z,0.80
2023-02-14T11:22:57.517Z,0.95
2023-02-14T11:25:27.195Z,1.21
2023-02-14T11:28:03.059Z,1.07
2023-02-14T11:30:35.956Z,1.07
2023-02-14T11:33:04.873Z,0.61
2023-02-14T11:35:34.933Z,0.79
2023-02-14T11:38:07.403Z,1.01
2023-02-14T11:40:37.773Z,1.22
2023-02-14T11:43:21.312Z,1.10
2023-02-14T11:45:50.487Z,1.34
2023-02-14T11:48:36.638Z,1.62
2023-02-14T11:51:09.313Z,1.85
2023-02-14T11:53:46.103Z,1.24
2023-02-14T11:56:15.497Z,1.37
2023-02-14T11:58:50.347Z,1.51
2023-02-14T12:01:25.342Z,1.30
2023-02-14T12:03:55.996Z,1.29
2023-02-14T12:06:25.815Z,1.71
2023-02-14T12:09:12.373Z,1.90
2023-02-14T12:11:40.506Z,1.57
2023-02-14T12:14:22.274Z,1.75
2023-02-14T12:16:57.651Z,1.97
2023-02-14T12:19:34.116Z,2.04
2023-02-14T12:22:05.439Z,2.12
2023-02-14T12:24:38.622Z,2.28
2023-02-14T12:27:20.141Z,2.22
2023-02-14T12:29:52.723Z,2.23
2023-02-14T12:32:25.765Z,2.66
2023-02-14T12:35:02.936Z,2.87
2023-02-14T12:37:46.972Z,2.88
2023-02-14T12:40:22.783Z,2.86
2023-02-14T12:43:14.687Z,2.77
2023-02-14T12:46:01.912Z,2.72
2023-02-14T12:48:43.932Z,2.79
2023-02-14T12:51:19.594Z,2.86
2023-02-14T12:54:09.374Z,2.74
2023-02-14T12:56:51.364Z,2.63
2023-02-14T12:59:30.228Z,3.00
2023-02-14T13:02:21.304Z,2.67
2023-02-14T13:05:00.804Z,2.87
2023-02-14T13:07:43.542Z,2.98
2023-02-14T13:10:30.149Z,3.05
2023-02-14T13:13:07.630Z,3.06
2023-02-14T13:15:41.968Z,3.12
2023-02-14T13:18:19.474Z,3.05
2023-02-14T13:20:53.312Z,3.22
2023-02-14T13:23:25.066Z,3.43
2023-02-14T13:25:59.112Z,3.27
2023-02-14T13:28:29.670Z,3.19
2023-02-14T13:31:00.445Z,2.98
2023-02-14T13:33:35.216Z,3.05
2023-02-14T13:36:07.898Z,3.36
2023-02-14T13:38:41.700Z,3.23
2023-02-14T13:41:11.494Z,3.31
2023-02-14T13:43:49.329Z,3.38
2023-02-14T13:46:19.268Z,3.25
2023-02-14T13:48:59.376Z,3.01
2023-02-14T13:51:45.948Z,2.81
2023-02-14T13:54:31.200Z,3.07
2023-02-14T13:57:00.937Z,3.08
2023-02-14T13:59:33.073Z,2.90
2023-02-14T14:02:42.548Z,2.88
2023-02-14T14:05:47.833Z,2.70
2023-02-14T14:08:40.540Z,2.68
2023-02-14T14:11:15.806Z,2.80
2023-02-14T14:14:01.683Z,2.81
2023-02-14T14:16:33.725Z,2.69
2023-02-14T14:19:04.862Z,2.83
2023-02-14T14:21:34.786Z,2.88
2023-02-14T14:24:17.498Z,2.86
2023-02-14T14:26:47.788Z,2.87
2023-02-14T14:29:24.917Z,3.00
2023-02-14T14:31:56.535Z,2.90
2023-02-14T14:34:26.209Z,2.86
2023-02-14T14:37:03.325Z,2.83
2023-02-14T14:39:33.181Z,2.94
2023-02-14T14:42:09.779Z,2.90
2023-02-14T14:44:46.284Z,2.97
2023-02-14T14:47:18.905Z,2.89
2023-02-14T14:49:47.344Z,2.80
2023-02-14T14:52:34.274Z,2.60
2023-02-14T14:55:04.938Z,2.59
2023-02-14T14:57:33.513Z,2.60
2023-02-14T15:00:29.687Z,2.49
2023-02-14T15:03:02.814Z,2.43
2023-02-14T15:05:34.639Z,2.43
2023-02-14T15:08:22.633Z,2.54
2023-02-14T15:10:55.464Z,2.45
2023-02-14T15:13:50.662Z,2.37
2023-02-14T15:16:21.382Z,2.36
2023-02-14T15:18:52.511Z,2.39
2023-02-14T15:21:20.844Z,2.35
2023-02-14T15:23:50.470Z,2.23
2023-02-14T15:26:22.588Z,2.07
2023-02-14T15:28:56.961Z,2.09
2023-02-14T15:31:29.496Z,2.08
2023-02-14T15:34:02.720Z,2.06
2023-02-14T15:36:32.613Z,2.04
2023-02-14T15:39:02.484Z,1.99
2023-02-14T15:41:30.616Z,2.05
2023-02-14T15:43:58.873Z,2.08
2023-02-14T15:46:33.890Z,1.93
2023-02-14T15:49:09.031Z,2.07
2023-02-14T15:51:37.510Z,1.97
2023-02-14T15:54:07.661Z,1.97
2023-02-14T15:56:42.614Z,1.88
2023-02-14T15:59:18.338Z,1.98
2023-02-14T16:01:52.969Z,1.82
2023-02-14T16:04:26.868Z,1.91
2023-02-14T16:07:05.374Z,1.87
2023-02-14T16:09:35.446Z,1.76
2023-02-14T16:12:30.725Z,1.89
2023-02-14T16:15:04.588Z,1.89
2023-02-14T16:17:33.788Z,1.93
2023-02-14T16:20:22.520Z,1.70
2023-02-14T16:22:50.530Z,1.60
2023-02-14T16:25:18.501Z,1.66
2023-02-14T16:27:46.682Z,1.73
2023-02-14T16:30:18.850Z,1.64
2023-02-14T16:32:53.730Z,1.59
2023-02-14T16:35:23.212Z,1.72
2023-02-14T16:37:53.141Z,1.60
2023-02-14T16:40:26.389Z,1.49
2023-02-14T16:42:54.922Z,1.35
2023-02-14T16:45:23.200Z,1.52
2023-02-14T16:47:51.536Z,1.53
2023-02-14T16:50:20.480Z,1.43
2023-02-14T16:52:52.684Z,1.32
2023-02-14T16:55:21.089Z,1.23
2023-02-14T16:57:52.158Z,1.20
2023-02-14T17:00:21.497Z,1.07
2023-02-14T17:02:49.637Z,0.88
2023-02-14T17:05:17.641Z,0.96
2023-02-14T17:07:45.800Z,0.94
2023-02-14T17:10:19.100Z,1.04
2023-02-14T17:12:49.162Z,1.08
2023-02-14T17:15:21.358Z,1.08
2023-02-14T17:17:50.486Z,1.07
2023-02-14T17:20:20.398Z,0.83
2023-02-14T17:22:48.866Z,0.78
2023-02-14T17:25:18.599Z,0.89
2023-02-14T17:27:46.591Z,0.75
2023-02-14T17:30:15.640Z,0.70
2023-02-14T17:32:44.349Z,0.82
2023-02-14T17:35:14.167Z,0.70
2023-02-14T17:37:42.120Z,0.71
2023-02-14T17:40:11.640Z,0.62
2023-02-14T17:42:41.088Z,0.58
2023-02-14T17:45:11.941Z,0.69
2023-02-14T17:47:43.352Z,0.58
2023-02-14T17:50:13.113Z,0.59
2023-02-14T17:52:41.084Z,0.69
2023-02-14T17:55:10.177Z,0.68
2023-02-14T17:57:41.047Z,0.75
2023-02-14T18:00:12.188Z,0.28
2023-02-14T18:02:40.223Z,0.23
2023-02-14T18:05:09.386Z,0.45
2023-02-14T18:07:38.253Z,0.38
2023-02-14T18:10:07.351Z,0.47
2023-02-14T18:12:35.368Z,0.33
2023-02-14T18:15:03.580Z,0.14
2023-02-14T18:17:32.934Z,0.50
2023-02-14T18:20:00.916Z,0.43
2023-02-14T18:22:29.597Z,0.48
2023-02-14T18:24:58.878Z,0.23
2023-02-14T18:27:27.541Z,0.27
2023-02-14T18:29:55.474Z,0.26
2023-02-14T18:32:23.389Z,0.06
2023-02-14T18:34:52.768Z,0.09
2023-02-14T18:37:20.718Z,0.23
2023-02-14T18:39:48.642Z,0.41
2023-02-14T18:42:16.668Z,0.35
2023-02-14T18:44:44.663Z,0.26
2023-02-14T18:47:12.644Z,0.13
2023-02-14T18:49:40.529Z,0.25
2023-02-14T18:52:10.479Z,0.22
2023-02-14T18:54:38.511Z,0.37
2023-02-14T18:57:06.468Z,0.24
2023-02-14T18:59:34.400Z,0.37
2023-02-14T19:02:02.926Z,0.32
2023-02-14T19:04:30.876Z,0.46
2023-02-14T19:06:58.813Z,0.39
2023-02-14T19:09:29.504Z,0.51
2023-02-14T19:12:00.158Z,0.25
2023-02-14T19:14:28.246Z,0.15
2023-02-14T19:16:56.202Z,0.25
2023-02-14T19:19:24.176Z,0.31
2023-02-14T19:21:52.322Z,0.12
2023-02-14T19:24:21.255Z,0.01
2023-02-14T19:26:51.608Z,0.06
2023-02-14T19:29:21.258Z,0.27
2023-02-14T19:31:51.807Z,-0.07
2023-02-14T19:34:21.720Z,-0.23
2023-02-14T19:36:51.444Z,0.10
2023-02-14T19:39:20.188Z,0.13
2023-02-14T19:41:48.909Z,0.04
2023-02-14T19:44:19.304Z,0.10
2023-02-14T19:46:48.625Z,0.16
2023-02-14T19:49:19.284Z,0.31
2023-02-14T19:51:48.313Z,0.34
2023-02-14T19:54:17.860Z,0.15
2023-02-14T19:56:48.308Z,0.33
2023-02-14T19:59:22.904Z,0.37
2023-02-14T20:01:52.226Z,0.34
2023-02-14T20:04:22.109Z,0.35
2023-02-14T20:06:51.324Z,0.34
2023-02-14T20:09:21.755Z,0.30
2023-02-14T20:11:52.595Z,0.12
2023-02-14T20:14:24.579Z,0.09
2023-02-14T20:16:54.384Z,0.08
2023-02-14T20:19:26.933Z,0.23
2023-02-14T20:21:55.578Z,0.29
2023-02-14T20:24:26.572Z,0.03
2023-02-14T20:26:55.159Z,-0.04
2023-02-14T20:29:26.547Z,0.06
2023-02-14T20:31:58.137Z,-0.07
2023-02-14T20:34:27.074Z,0.02
2023-02-14T20:36:56.326Z,0.23
2023-02-14T20:39:29.348Z,0.16
2023-02-14T20:41:58.243Z,0.21
2023-02-14T20:44:30.967Z,0.13
2023-02-14T20:46:59.816Z,-0.14
2023-02-14T20:49:30.755Z,-0.12
2023-02-14T20:51:59.444Z,-0.10
2023-02-14T20:54:29.192Z,-0.05
2023-02-14T20:56:58.129Z,-0.39
2023-02-14T20:59:28.590Z,-0.37
2023-02-14T21:01:59.616Z,-0.25
2023-02-14T21:04:28.700Z,-0.42
2023-02-14T21:06:57.939Z,-0.35
2023-02-14T21:09:26.046Z,-0.51
2023-02-14T21:11:54.172Z,-0.33
2023-02-14T21:14:22.643Z,-0.32
2023-02-14T21:16:50.717Z,-0.13
2023-02-14T21:19:20.429Z,-0.14
2023-02-14T21:21:48.352Z,-0.19
2023-02-14T21:24:17.148Z,-0.23
2023-02-14T21:26:45.823Z,-0.40
2023-02-14T21:29:13.854Z,-0.62
2023-02-14T21:31:42.548Z,-0.53
2023-02-14T21:34:10.572Z,-0.34
2023-02-14T21:36:39.925Z,-0.31
2023-02-14T21:39:08.546Z,-0.30
2023-02-14T21:41:37.295Z,-0.33
2023-02-14T21:44:06.015Z,-0.60
2023-02-14T21:46:36.048Z,-0.51
2023-02-14T21:49:23.802Z,-0.57
2023-02-14T21:51:53.653Z,-0.64
2023-02-14T21:54:21.615Z,-0.62
2023-02-14T21:56:50.426Z,-0.58
2023-02-14T21:59:18.487Z,-0.61
2023-02-14T22:01:46.633Z,-0.60
2023-02-14T22:04:14.741Z,-0.53
2023-02-14T22:06:43.602Z,-0.33
2023-02-14T22:09:14.768Z,-0.42
2023-02-14T22:11:42.752Z,-0.36
2023-02-14T22:14:11.212Z,-0.33
2023-02-14T22:16:39.270Z,-0.24
2023-02-14T22:19:08.560Z,-0.28
2023-02-14T22:21:36.773Z,-0.31
2023-02-14T22:24:05.516Z,-0.33
2023-02-14T22:26:38.858Z,-0.43
2023-02-14T22:29:07.415Z,-0.54
2023-02-14T22:31:37.932Z,-0.32
2023-02-14T22:34:07.303Z,-0.40
2023-02-14T22:36:35.708Z,-0.58
2023-02-14T22:39:04.116Z,-0.68
2023-02-14T22:41:32.089Z,-0.76
2023-02-14T22:44:01.431Z,-0.89
2023-02-14T22:46:29.741Z,-0.81
2023-02-14T22:48:58.913Z,-0.68
2023-02-14T22:51:29.340Z,-0.55
2023-02-14T22:53:59.715Z,-0.55
2023-02-14T22:56:29.532Z,-0.59
2023-02-14T22:58:59.709Z,-0.55
2023-02-14T23:01:29.556Z,-0.57
2023-02-14T23:03:59.335Z,-0.59
2023-02-14T23:06:28.840Z,-0.65
2023-02-14T23:08:57.422Z,-0.62
2023-02-14T23:11:28.306Z,-0.68
2023-02-14T23:14:14.487Z,-0.67
2023-02-14T23:17:15.750Z,-0.73
2023-02-14T23:20:01.732Z,-0.61
2023-02-14T23:22:31.964Z,-0.73
2023-02-14T23:25:01.650Z,-0.78
2023-02-14T23:27:32.813Z,-0.82
2023-02-14T23:30:01.199Z,-0.91
2023-02-14T23:32:30.668Z,-0.68
2023-02-14T23:34:59.673Z,-0.72
2023-02-14T23:37:27.851Z,-0.78
2023-02-14T23:39:57.054Z,-0.90
2023-02-14T23:42:24.990Z,-0.70
2023-02-14T23:44:52.972Z,-0.86
2023-02-14T23:47:20.974Z,-0.92
2023-02-14T23:49:50.273Z,-1.17
2023-02-14T23:52:18.233Z,-1.30
2023-02-14T23:54:46.124Z,-1.25
2023-02-14T23:57:14.051Z,-1.08
2023-02-14T23:59:41.960Z,-1.33
